PROFILE

 METAR AND TAF INFORMATION
ADDS - METARS form results

(2307 UTC 26 May 2019)
http://aviationweather.gov/metar/data/
 
PASN 262300Z AUTO 08016KT 8SM BKN006 OVC026 07/07 A2939 RMK AO2 RAE2258 P0000 T00720067 TSNO $
PASN 262253Z AUTO 08014KT 7SM -RA BKN004 BKN026 OVC036 07/07 A2939 RMK AO2 RAE34B44 SLP953 P0000 T00720067 TSNO $
PASN 262249Z AUTO 08014KT 6SM -RA BR BKN004 BKN026 OVC044 07/07 A2939 RMK AO2 RAE34B44 P0000 TSNO $
PASN 262238Z AUTO 08015KT 9SM SCT003 BKN024 OVC044 08/07 A2939 RMK AO2 RAE34 P0000 T00780072 TSNO $
PASN 261725Z 2618/2718 08015KT 6SM -RA BR SCT004 BKN008 TEMPO 2618/2619 BKN017 FM262000 08015KT P6SM -SHRA SCT003 OVC007 FM270500 04012KT 4SM -SHRA BR OVC003 FM271300 03013KT 2SM -SHRA BR SCT003 OVC007 

 AIRPORT MAP

 RUNWAY INFORMATION
Runway 18 Runway length 6500 ft Runway width 150 ft
Runway elevation 63 ft Runway displaced threshold 0 ft Runway heading 190
Runway 36 Runway length 6500 ft Runway width 150 ft
Runway elevation 36 ft Runway displaced threshold 0 ft Runway heading 10

 AIRPORT FREQUENCIES
Type ASOS Name ASOS Frequency 135.75 MHZ
Type CNTR Name ANCHORAGE Frequency 119.1 MHZ
Type CTAF Name CTAF Frequency 122.3 MHZ
Type FSS Name COLD BAY R Frequency 122.45 MHZ
Type MISC Name NWS OBSVR Frequency 122 MHZ

 AIRPORT NEAR NAVIGATION AIDS
Type NDB-DME Name Saint Paul Island Frequency 314 KHZ